Garrison, ND

4:47 PM CDT on September 03, 2015 (GMT -0500)
Downtown Garrison, ND | | Change Station
CLOSE
Current Station
Personal Weather Station
Location: Garrison, ND
Elevation: 1929 ft
Nearby Weather Stations

Elev 1929 ft 47.65 °N, 101.41 °W | Updated 8 minutes ago

Clear
Clear
95.4 °F
Feels Like 100 °F
N
2.2
Wind Variable Wind from SSW

Today
High -- | Low -- °F
--% Chance of Precip.
Yesterday
High -- | Low -- °F
Precip. -- in
7:06 AM 8:22 PM
Waning Gibbous, 66% visible
Pressure 29.60 in
Visibility 10.0 miles
Clouds Clear
Heat Index 100 °F
Dew Point 68 °F
Humidity 41%
Rainfall 0.00 in
Snow Depth Not available.
UV 5 out of 12
Pollen 10.60 out of 12
Air Quality Not available.
Flu Activity Not available.
METAR KMOT 032054Z VRB06KT 10SM CLR 34/16 A2963 RMK AO2 SLP021 T03440161 58001
Pressure 29.60 in
Visibility 10.0 miles
Clouds Clear
Heat Index 100 °F
Dew Point 68 °F
Humidity 41%
Rainfall 0.00 in
Snow Depth Not available.
UV 5 out of 12
Pollen 10.60 out of 12
Air Quality Not available.
Flu Activity Not available.
METAR KMOT 032054Z VRB06KT 10SM CLR 34/16 A2963 RMK AO2 SLP021 T03440161 58001

10-Day Weather Forecast

×

Almanac

Astronomy

Sep. 03, 2015 Rise Set
Actual Time
Civil Twilight
Nautical Twilight
Astronomical Twilight
Moon
Length of Visible Light
Length of Day
Tomorrow will be .
, % of the Moon is Illuminated

Today's Extremes

State Highs State Lows

Community

WunderPhotos

Upload Photos

1,852,045 photos uploaded!

WunderBlogs® & News

Nearby

Air Quality

  Air Quality AQ Index Pollutant
Not available.

Snow Depth

Station Depth Elevation

Earthquake Activity

City Distance Mag. Time & Date
Minimum magnitude displayed is 2.5.

Coastal Water Temperatures

Place Temperature

Stations

Nearby Weather Stations

Station Location Temp. Windchill Dew Point Humidity Wind Precip. Elev Updated Type